Shimanami Star — C6VN9 — position and weather

sailwx.info

Track history (hours):
 
Tides and Currents Weather Stations Pressure Air Temp Water Temp Dewpoint Dewpoint Depression Visibility Wind Speed Wind Dir Waves Ship Positions

Shimanami Star

Last reported at 2017-Aug-17 00:46 UTC. Time now 2017-Oct-19 04:01 UTC.
Position N 32°34' E 030°60'.
Warning: this ship's position is months out of date.

Length 170 m; draft 8.3 m.

Type: Cargo ship. MMSI: 309116000.

Date/timePositionNaut miles runAvg speedWind from/ knotsBaromVisibWave heightAir tempDewpointWater temp
2017-Aug-17 00:46N 32°34' E 030°60'711.4
2017-Aug-17 00:11N 32°39' E 030°54'211.4
2017-Aug-17 00:00N 32°40' E 030°53'37511.9
2017-Aug-15 16:37N 37°25' E 025°55'112.0
2017-Aug-15 16:30N 37°26' E 025°55'612.0
2017-Aug-15 16:00N 37°31' E 025°52'712.4
2017-Aug-15 15:26N 37°38' E 025°48'512.3
2017-Aug-15 15:00N 37°42' E 025°44'612.3
2017-Aug-15 14:30N 37°48' E 025°41'261 5.7
2017-Aug-13 16:48N 41°17' E 029°03'0 0.0
2017-Aug-13 16:24N 41°17' E 029°03'0 0.0
2017-Aug-13 15:30N 41°17' E 029°03'0 0.0
2017-Aug-13 15:00N 41°17' E 029°03'0 0.0
2017-Aug-13 14:24N 41°17' E 029°03'0 0.0
2017-Aug-13 13:54N 41°17' E 029°03'0 0.0
2017-Aug-13 13:30N 41°17' E 029°03'0 0.0
2017-Aug-13 00:54N 41°17' E 029°03'0 0.0
2017-Aug-12 18:15N 41°16' E 029°03'0 0.0
2017-Aug-12 17:24N 41°16' E 029°03'0 0.0
2017-Aug-12 11:24N 41°16' E 029°03'0 0.0
2017-Aug-12 11:00N 41°16' E 029°03'0 0.0
2017-Aug-12 10:30N 41°16' E 029°03'0 0.0
2017-Aug-12 09:54N 41°16' E 029°03'0 0.0
2017-Aug-12 09:30N 41°16' E 029°03'0 0.0
2017-Aug-12 09:00N 41°16' E 029°03'0 0.0
2017-Aug-12 08:30N 41°16' E 029°03'0 0.0
2017-Aug-12 08:00N 41°16' E 029°03'0 0.0
2017-Aug-12 07:27N 41°16' E 029°03'0 0.0
2017-Aug-12 06:57N 41°16' E 029°03'0 0.0
2017-Aug-12 06:30N 41°16' E 029°03'0 0.0
2017-Aug-12 06:00N 41°16' E 029°03'0 0.0
2017-Aug-12 05:30N 41°16' E 029°03'0 0.0
2017-Aug-12 04:33N 41°16' E 029°03'0 0.1
2017-Aug-12 04:30N 41°16' E 029°03'0 0.0
2017-Aug-12 04:00N 41°16' E 029°03'0 0.0
2017-Aug-12 03:21N 41°16' E 029°03'0 0.0
2017-Aug-12 02:57N 41°16' E 029°03'0 0.0
2017-Aug-12 02:30N 41°16' E 029°03'0 0.0
2017-Aug-12 00:54N 41°16' E 029°03'0 0.0
2017-Aug-11 23:12N 41°16' E 029°03'0 0.0
2017-Aug-11 23:00N 41°16' E 029°03'0 0.1
2017-Aug-11 22:30N 41°16' E 029°03'0 0.1
2017-Aug-11 21:42N 41°16' E 029°03'0 0.1
2017-Aug-11 21:24N 41°16' E 029°03'0 0.0
2017-Aug-11 21:00N 41°16' E 029°03'0 0.0
2017-Aug-11 20:30N 41°16' E 029°03'0 0.0
2017-Aug-11 20:00N 41°16' E 029°03'0 0.0
2017-Aug-11 19:27N 41°16' E 029°03'0 0.0
2017-Aug-11 19:00N 41°16' E 029°03'0 0.0
2017-Aug-11 18:30N 41°16' E 029°03'0 0.0
2017-Aug-11 17:57N 41°16' E 029°03'0 0.0
2017-Aug-11 17:24N 41°16' E 029°03'0 0.0
2017-Aug-11 17:00N 41°16' E 029°03'0 0.0
2017-Aug-11 16:30N 41°16' E 029°03'0 0.0
2017-Aug-11 15:51N 41°16' E 029°03'0 0.0
2017-Aug-11 15:30N 41°16' E 029°03'0 0.0
2017-Aug-11 14:57N 41°16' E 029°03'0 0.0
2017-Aug-11 14:01N 41°16' E 029°03'12 1.8
2017-Aug-11 07:06N 41°28' E 029°07'0 0.2
2017-Aug-11 05:13N 41°29' E 029°07'1 1.8
2017-Aug-11 04:55N 41°29' E 029°08'5 9.3
2017-Aug-11 04:22N 41°32' E 029°13'1211.1
2017-Aug-11 03:17N 41°39' E 029°26'312.0
2017-Aug-11 03:00N 41°40' E 029°31'1012.1
2017-Aug-11 02:08N 41°45' E 029°43'312.0
2017-Aug-11 01:51N 41°46' E 029°47'412.0
2017-Aug-11 01:30N 41°48' E 029°52'812.1
2017-Aug-11 00:53N 41°51' E 030°01'712.1
2017-Aug-11 00:19N 41°54' E 030°10'412.0
2017-Aug-10 23:58N 41°56' E 030°15'611.9
2017-Aug-10 23:28N 41°58' E 030°22'511.8
2017-Aug-10 23:01N 42°01' E 030°29'611.8
2017-Aug-10 22:31N 42°03' E 030°36'711.9
2017-Aug-10 21:57N 42°06' E 030°44'511.9
2017-Aug-10 21:30N 42°08' E 030°50'711.8
2017-Aug-10 20:57N 42°11' E 030°58'512.0
2017-Aug-10 20:30N 42°14' E 031°05'611.9
2017-Aug-10 20:01N 42°16' E 031°12'612.0
2017-Aug-10 19:31N 42°19' E 031°19'611.9
2017-Aug-10 19:01N 42°21' E 031°27'611.9
2017-Aug-10 18:30N 42°24' E 031°34'612.0
2017-Aug-10 18:01N 42°26' E 031°41'711.9
2017-Aug-10 17:25N 42°29' E 031°50'612.0
2017-Aug-10 16:56N 42°32' E 031°57'1112.0
2017-Aug-10 16:02N 42°37' E 032°10'012.5
2017-Aug-10 16:01N 42°37' E 032°11'612.0
2017-Aug-10 15:30N 42°39' E 032°18'1912.2
2017-Aug-10 13:57N 42°47' E 032°41'20212.5
2017-Aug-09 21:47N 44°14' E 036°52'412.6
2017-Aug-09 21:29N 44°16' E 036°57'712.6
2017-Aug-09 20:56N 44°19' E 037°05'512.7
2017-Aug-09 20:30N 44°22' E 037°12'1812.8
2017-Aug-09 19:08N 44°29' E 037°34'312.6
2017-Aug-09 18:56N 44°31' E 037°37'512.2
2017-Aug-09 18:30N 44°33' E 037°44'612.5
2017-Aug-09 18:01N 44°38' E 037°49'3 6.8
2017-Aug-09 17:31N 44°41' E 037°51'0 0.1
2017-Aug-09 16:58N 44°41' E 037°51'0 0.0
2017-Aug-09 16:28N 44°41' E 037°51'0 0.1
2017-Aug-09 15:58N 44°41' E 037°51'0 0.1
2017-Aug-09 15:28N 44°41' E 037°51'0 0.0
2017-Aug-09 14:58N 44°41' E 037°51'0 0.0
2017-Aug-09 14:28N 44°41' E 037°51'0 0.1
2017-Aug-09 13:58N 44°41' E 037°51'0 0.0
2017-Aug-09 13:28N 44°41' E 037°51'0 0.1
2017-Aug-09 13:01N 44°41' E 037°51'1 1.2
2017-Aug-09 12:30N 44°42' E 037°50'2 3.6
2017-Aug-09 12:00N 44°43' E 037°49'0 0.6
2017-Aug-09 11:28N 44°43' E 037°49'0 0.0
2017-Aug-09 10:58N 44°43' E 037°49'0 0.0
2017-Aug-09 10:28N 44°43' E 037°49'0 0.0
2017-Aug-09 09:58N 44°43' E 037°49'0 0.0
2017-Aug-09 09:28N 44°43' E 037°49'0 0.0
2017-Aug-09 08:58N 44°43' E 037°49'0 0.0
2017-Aug-09 08:28N 44°43' E 037°49'0 0.0
2017-Aug-09 07:58N 44°43' E 037°49'0 0.0
2017-Aug-09 07:28N 44°43' E 037°49'0 0.0
2017-Aug-09 06:58N 44°43' E 037°49'0 0.0
2017-Aug-09 06:28N 44°43' E 037°49'0 0.0
2017-Aug-09 05:58N 44°43' E 037°49'0 0.0
2017-Aug-09 05:28N 44°43' E 037°49'0 0.0
2017-Aug-09 04:58N 44°43' E 037°49'0 0.0
2017-Aug-09 04:28N 44°43' E 037°49'0 0.0
2017-Aug-09 03:58N 44°43' E 037°49'0 0.0
2017-Aug-09 03:28N 44°43' E 037°49'0 0.0
2017-Aug-09 02:58N 44°43' E 037°49'0 0.0
2017-Aug-09 02:28N 44°43' E 037°49'0 0.0
2017-Aug-09 01:58N 44°43' E 037°49'0 0.0
2017-Aug-09 01:28N 44°43' E 037°49'0 0.0
2017-Aug-09 00:58N 44°43' E 037°49'0 0.0
2017-Aug-09 00:28N 44°43' E 037°49'0 0.0
2017-Aug-08 23:58N 44°43' E 037°49'0 0.0
2017-Aug-08 23:28N 44°43' E 037°49'0 0.0
2017-Aug-08 22:58N 44°43' E 037°49'0 0.0
2017-Aug-08 22:28N 44°43' E 037°49'0 0.0
2017-Aug-08 21:58N 44°43' E 037°49'0 0.0
2017-Aug-08 21:28N 44°43' E 037°49'0 0.0
2017-Aug-08 20:58N 44°43' E 037°49'0 0.0
2017-Aug-08 20:28N 44°43' E 037°49'0 0.0
2017-Aug-08 19:58N 44°43' E 037°49'0 0.0
2017-Aug-08 19:28N 44°43' E 037°49'0 0.0
2017-Aug-08 18:58N 44°43' E 037°49'0 0.0
2017-Aug-08 18:28N 44°43' E 037°49'0 0.0
2017-Aug-08 17:58N 44°43' E 037°49'0 0.0
2017-Aug-08 17:28N 44°43' E 037°49'0 0.0
2017-Aug-08 16:58N 44°43' E 037°49'0 0.0
2017-Aug-08 16:28N 44°43' E 037°49'0 0.0
2017-Aug-08 15:58N 44°43' E 037°49'0 0.0
2017-Aug-08 15:28N 44°43' E 037°49'0 0.0
2017-Aug-08 14:58N 44°43' E 037°49'0 0.0
2017-Aug-08 14:28N 44°43' E 037°49'0 0.0
2017-Aug-08 13:58N 44°43' E 037°49'0 0.0
2017-Aug-08 13:28N 44°43' E 037°49'0 0.0
2017-Aug-08 12:58N 44°43' E 037°49'0 0.0
2017-Aug-08 12:28N 44°43' E 037°49'0 0.0
2017-Aug-08 11:58N 44°43' E 037°49'0 0.0
2017-Aug-08 11:28N 44°43' E 037°49'0 0.0
2017-Aug-08 10:58N 44°43' E 037°49'0 0.0
2017-Aug-08 10:28N 44°43' E 037°49'0 0.0
2017-Aug-08 09:58N 44°43' E 037°49'0 0.0
2017-Aug-08 09:28N 44°43' E 037°49'0 0.0
2017-Aug-08 08:58N 44°43' E 037°49'0 0.0
2017-Aug-08 08:25N 44°43' E 037°49'0 0.0
2017-Aug-08 07:55N 44°43' E 037°49'0 0.0
2017-Aug-08 07:28N 44°43' E 037°49'0 0.0
2017-Aug-08 06:58N 44°43' E 037°49'0 0.0
2017-Aug-08 06:28N 44°43' E 037°49'0 0.0
2017-Aug-08 05:58N 44°43' E 037°49'0 0.0
2017-Aug-08 05:28N 44°43' E 037°49'0 0.0
2017-Aug-08 04:58N 44°43' E 037°49'0 0.0
2017-Aug-08 04:28N 44°43' E 037°49'0 0.0
2017-Aug-08 03:58N 44°43' E 037°49'0 0.0
2017-Aug-08 03:28N 44°43' E 037°49'0 0.0
2017-Aug-08 02:58N 44°43' E 037°49'0 0.0
2017-Aug-08 02:28N 44°43' E 037°49'0 0.0
2017-Aug-08 01:58N 44°43' E 037°49'0 0.0
2017-Aug-08 01:28N 44°43' E 037°49'0 0.0
2017-Aug-08 00:58N 44°43' E 037°49'0 0.0
2017-Aug-08 00:28N 44°43' E 037°49'0 0.0
2017-Aug-07 23:58N 44°43' E 037°49'0 0.0
2017-Aug-07 23:25N 44°43' E 037°49'0 0.0
2017-Aug-07 22:58N 44°43' E 037°49'0 0.0
2017-Aug-07 22:28N 44°43' E 037°49'0 0.0
2017-Aug-07 21:58N 44°43' E 037°49'0 0.0
2017-Aug-07 21:28N 44°43' E 037°49'0 0.0
2017-Aug-07 20:58N 44°43' E 037°49'0 0.0
2017-Aug-07 20:28N 44°43' E 037°49'0 0.0
2017-Aug-07 19:58N 44°43' E 037°49'0 0.0
2017-Aug-07 19:28N 44°43' E 037°49'0 0.0
2017-Aug-07 18:58N 44°43' E 037°49'0 0.0
2017-Aug-07 18:28N 44°43' E 037°49'0 0.0
2017-Aug-07 17:58N 44°43' E 037°49'0 0.0
2017-Aug-07 17:25N 44°43' E 037°49'0 0.0
2017-Aug-07 16:58N 44°43' E 037°49'0 0.0
2017-Aug-07 16:28N 44°43' E 037°49'0 0.0
2017-Aug-07 15:58N 44°43' E 037°49'0 0.0
2017-Aug-07 15:28N 44°43' E 037°49'0 0.0
2017-Aug-07 14:58N 44°43' E 037°49'0 0.0
2017-Aug-07 14:28N 44°43' E 037°49'0 0.0
2017-Aug-07 13:58N 44°43' E 037°49'0 0.0
2017-Aug-07 13:28N 44°43' E 037°49'0 0.0
2017-Aug-07 12:58N 44°43' E 037°49'0 0.0
2017-Aug-07 12:28N 44°43' E 037°49'0 0.0
2017-Aug-07 11:58N 44°43' E 037°49'0 0.0
2017-Aug-07 11:28N 44°43' E 037°49'0 0.0
2017-Aug-07 10:58N 44°43' E 037°49'0 0.0
2017-Aug-07 10:28N 44°43' E 037°49'0 0.0
2017-Aug-07 09:58N 44°43' E 037°49'0 0.0
2017-Aug-07 09:28N 44°43' E 037°49'0 0.0
2017-Aug-07 08:58N 44°43' E 037°49'0 0.0
2017-Aug-07 08:28N 44°43' E 037°49'0 0.0
2017-Aug-07 07:58N 44°43' E 037°49'0 0.0
2017-Aug-07 07:28N 44°43' E 037°49'0 0.0
2017-Aug-07 06:58N 44°43' E 037°49'0 0.0
2017-Aug-07 06:28N 44°43' E 037°49'0 0.0
2017-Aug-07 05:58N 44°43' E 037°49'0 0.0
2017-Aug-07 05:28N 44°43' E 037°49'0 0.0
2017-Aug-07 04:58N 44°43' E 037°49'0 0.0
2017-Aug-07 04:28N 44°43' E 037°49'0 0.0
2017-Aug-07 03:58N 44°43' E 037°49'0 0.0
2017-Aug-07 03:28N 44°43' E 037°49'0 0.0
2017-Aug-07 02:58N 44°43' E 037°49'0 0.0
2017-Aug-07 02:28N 44°43' E 037°49'0 0.0
2017-Aug-07 01:58N 44°43' E 037°49'0 0.0
2017-Aug-07 01:28N 44°43' E 037°49'0 0.0
2017-Aug-07 00:58N 44°43' E 037°49'  
Track history (hours):
 
Tides and Currents Weather Stations Pressure Air Temp Water Temp Dewpoint Dewpoint Depression Visibility Wind Speed Wind Dir Waves Ship Positions

Shimanami Star

Last reported at 2017-Aug-17 00:46 UTC. Time now 2017-Oct-19 04:01 UTC.
Position N 32°34' E 030°60'.
Warning: this ship's position is months out of date.

Length 170 m; draft 8.3 m.

Type: Cargo ship. MMSI: 309116000.

Date/timePositionNaut miles runAvg speedWind from/ knotsBaromVisibWave heightAir tempDewpointWater temp
2017-Aug-17 00:46N 32°34' E 030°60'711.4
2017-Aug-17 00:11N 32°39' E 030°54'211.4
2017-Aug-17 00:00N 32°40' E 030°53'37511.9
2017-Aug-15 16:37N 37°25' E 025°55'112.0
2017-Aug-15 16:30N 37°26' E 025°55'612.0
2017-Aug-15 16:00N 37°31' E 025°52'712.4
2017-Aug-15 15:26N 37°38' E 025°48'512.3
2017-Aug-15 15:00N 37°42' E 025°44'612.3
2017-Aug-15 14:30N 37°48' E 025°41'261 5.7
2017-Aug-13 16:48N 41°17' E 029°03'0 0.0
2017-Aug-13 16:24N 41°17' E 029°03'0 0.0
2017-Aug-13 15:30N 41°17' E 029°03'0 0.0
2017-Aug-13 15:00N 41°17' E 029°03'0 0.0
2017-Aug-13 14:24N 41°17' E 029°03'0 0.0
2017-Aug-13 13:54N 41°17' E 029°03'0 0.0
2017-Aug-13 13:30N 41°17' E 029°03'0 0.0
2017-Aug-13 00:54N 41°17' E 029°03'0 0.0
2017-Aug-12 18:15N 41°16' E 029°03'0 0.0
2017-Aug-12 17:24N 41°16' E 029°03'0 0.0
2017-Aug-12 11:24N 41°16' E 029°03'0 0.0
2017-Aug-12 11:00N 41°16' E 029°03'0 0.0
2017-Aug-12 10:30N 41°16' E 029°03'0 0.0
2017-Aug-12 09:54N 41°16' E 029°03'0 0.0
2017-Aug-12 09:30N 41°16' E 029°03'0 0.0
2017-Aug-12 09:00N 41°16' E 029°03'0 0.0
2017-Aug-12 08:30N 41°16' E 029°03'0 0.0
2017-Aug-12 08:00N 41°16' E 029°03'0 0.0
2017-Aug-12 07:27N 41°16' E 029°03'0 0.0
2017-Aug-12 06:57N 41°16' E 029°03'0 0.0
2017-Aug-12 06:30N 41°16' E 029°03'0 0.0
2017-Aug-12 06:00N 41°16' E 029°03'0 0.0
2017-Aug-12 05:30N 41°16' E 029°03'0 0.0
2017-Aug-12 04:33N 41°16' E 029°03'0 0.1
2017-Aug-12 04:30N 41°16' E 029°03'0 0.0
2017-Aug-12 04:00N 41°16' E 029°03'0 0.0
2017-Aug-12 03:21N 41°16' E 029°03'0 0.0
2017-Aug-12 02:57N 41°16' E 029°03'0 0.0
2017-Aug-12 02:30N 41°16' E 029°03'0 0.0
2017-Aug-12 00:54N 41°16' E 029°03'0 0.0
2017-Aug-11 23:12N 41°16' E 029°03'0 0.0
2017-Aug-11 23:00N 41°16' E 029°03'0 0.1
2017-Aug-11 22:30N 41°16' E 029°03'0 0.1
2017-Aug-11 21:42N 41°16' E 029°03'0 0.1
2017-Aug-11 21:24N 41°16' E 029°03'0 0.0
2017-Aug-11 21:00N 41°16' E 029°03'0 0.0
2017-Aug-11 20:30N 41°16' E 029°03'0 0.0
2017-Aug-11 20:00N 41°16' E 029°03'0 0.0
2017-Aug-11 19:27N 41°16' E 029°03'0 0.0
2017-Aug-11 19:00N 41°16' E 029°03'0 0.0
2017-Aug-11 18:30N 41°16' E 029°03'0 0.0
2017-Aug-11 17:57N 41°16' E 029°03'0 0.0
2017-Aug-11 17:24N 41°16' E 029°03'0 0.0
2017-Aug-11 17:00N 41°16' E 029°03'0 0.0
2017-Aug-11 16:30N 41°16' E 029°03'0 0.0
2017-Aug-11 15:51N 41°16' E 029°03'0 0.0
2017-Aug-11 15:30N 41°16' E 029°03'0 0.0
2017-Aug-11 14:57N 41°16' E 029°03'0 0.0
2017-Aug-11 14:01N 41°16' E 029°03'12 1.8
2017-Aug-11 07:06N 41°28' E 029°07'0 0.2
2017-Aug-11 05:13N 41°29' E 029°07'1 1.8
2017-Aug-11 04:55N 41°29' E 029°08'5 9.3
2017-Aug-11 04:22N 41°32' E 029°13'1211.1
2017-Aug-11 03:17N 41°39' E 029°26'312.0
2017-Aug-11 03:00N 41°40' E 029°31'1012.1
2017-Aug-11 02:08N 41°45' E 029°43'312.0
2017-Aug-11 01:51N 41°46' E 029°47'412.0
2017-Aug-11 01:30N 41°48' E 029°52'812.1
2017-Aug-11 00:53N 41°51' E 030°01'712.1
2017-Aug-11 00:19N 41°54' E 030°10'412.0
2017-Aug-10 23:58N 41°56' E 030°15'611.9
2017-Aug-10 23:28N 41°58' E 030°22'511.8
2017-Aug-10 23:01N 42°01' E 030°29'611.8
2017-Aug-10 22:31N 42°03' E 030°36'711.9
2017-Aug-10 21:57N 42°06' E 030°44'511.9
2017-Aug-10 21:30N 42°08' E 030°50'711.8
2017-Aug-10 20:57N 42°11' E 030°58'512.0
2017-Aug-10 20:30N 42°14' E 031°05'611.9
2017-Aug-10 20:01N 42°16' E 031°12'612.0
2017-Aug-10 19:31N 42°19' E 031°19'611.9
2017-Aug-10 19:01N 42°21' E 031°27'611.9
2017-Aug-10 18:30N 42°24' E 031°34'612.0
2017-Aug-10 18:01N 42°26' E 031°41'711.9
2017-Aug-10 17:25N 42°29' E 031°50'612.0
2017-Aug-10 16:56N 42°32' E 031°57'1112.0
2017-Aug-10 16:02N 42°37' E 032°10'012.5
2017-Aug-10 16:01N 42°37' E 032°11'612.0
2017-Aug-10 15:30N 42°39' E 032°18'1912.2
2017-Aug-10 13:57N 42°47' E 032°41'20212.5
2017-Aug-09 21:47N 44°14' E 036°52'412.6
2017-Aug-09 21:29N 44°16' E 036°57'712.6
2017-Aug-09 20:56N 44°19' E 037°05'512.7
2017-Aug-09 20:30N 44°22' E 037°12'1812.8
2017-Aug-09 19:08N 44°29' E 037°34'312.6
2017-Aug-09 18:56N 44°31' E 037°37'512.2
2017-Aug-09 18:30N 44°33' E 037°44'612.5
2017-Aug-09 18:01N 44°38' E 037°49'3 6.8
2017-Aug-09 17:31N 44°41' E 037°51'0 0.1
2017-Aug-09 16:58N 44°41' E 037°51'0 0.0
2017-Aug-09 16:28N 44°41' E 037°51'0 0.1
2017-Aug-09 15:58N 44°41' E 037°51'0 0.1
2017-Aug-09 15:28N 44°41' E 037°51'0 0.0
2017-Aug-09 14:58N 44°41' E 037°51'0 0.0
2017-Aug-09 14:28N 44°41' E 037°51'0 0.1
2017-Aug-09 13:58N 44°41' E 037°51'0 0.0
2017-Aug-09 13:28N 44°41' E 037°51'0 0.1
2017-Aug-09 13:01N 44°41' E 037°51'1 1.2
2017-Aug-09 12:30N 44°42' E 037°50'2 3.6
2017-Aug-09 12:00N 44°43' E 037°49'0 0.6
2017-Aug-09 11:28N 44°43' E 037°49'0 0.0
2017-Aug-09 10:58N 44°43' E 037°49'0 0.0
2017-Aug-09 10:28N 44°43' E 037°49'0 0.0
2017-Aug-09 09:58N 44°43' E 037°49'0 0.0
2017-Aug-09 09:28N 44°43' E 037°49'0 0.0
2017-Aug-09 08:58N 44°43' E 037°49'0 0.0
2017-Aug-09 08:28N 44°43' E 037°49'0 0.0
2017-Aug-09 07:58N 44°43' E 037°49'0 0.0
2017-Aug-09 07:28N 44°43' E 037°49'0 0.0
2017-Aug-09 06:58N 44°43' E 037°49'0 0.0
2017-Aug-09 06:28N 44°43' E 037°49'0 0.0
2017-Aug-09 05:58N 44°43' E 037°49'0 0.0
2017-Aug-09 05:28N 44°43' E 037°49'0 0.0
2017-Aug-09 04:58N 44°43' E 037°49'0 0.0
2017-Aug-09 04:28N 44°43' E 037°49'0 0.0
2017-Aug-09 03:58N 44°43' E 037°49'0 0.0
2017-Aug-09 03:28N 44°43' E 037°49'0 0.0
2017-Aug-09 02:58N 44°43' E 037°49'0 0.0
2017-Aug-09 02:28N 44°43' E 037°49'0 0.0
2017-Aug-09 01:58N 44°43' E 037°49'0 0.0
2017-Aug-09 01:28N 44°43' E 037°49'0 0.0
2017-Aug-09 00:58N 44°43' E 037°49'0 0.0
2017-Aug-09 00:28N 44°43' E 037°49'0 0.0
2017-Aug-08 23:58N 44°43' E 037°49'0 0.0
2017-Aug-08 23:28N 44°43' E 037°49'0 0.0
2017-Aug-08 22:58N 44°43' E 037°49'0 0.0
2017-Aug-08 22:28N 44°43' E 037°49'0 0.0
2017-Aug-08 21:58N 44°43' E 037°49'0 0.0
2017-Aug-08 21:28N 44°43' E 037°49'0 0.0
2017-Aug-08 20:58N 44°43' E 037°49'0 0.0
2017-Aug-08 20:28N 44°43' E 037°49'0 0.0
2017-Aug-08 19:58N 44°43' E 037°49'0 0.0
2017-Aug-08 19:28N 44°43' E 037°49'0 0.0
2017-Aug-08 18:58N 44°43' E 037°49'0 0.0
2017-Aug-08 18:28N 44°43' E 037°49'0 0.0
2017-Aug-08 17:58N 44°43' E 037°49'0 0.0
2017-Aug-08 17:28N 44°43' E 037°49'0 0.0
2017-Aug-08 16:58N 44°43' E 037°49'0 0.0
2017-Aug-08 16:28N 44°43' E 037°49'0 0.0
2017-Aug-08 15:58N 44°43' E 037°49'0 0.0
2017-Aug-08 15:28N 44°43' E 037°49'0 0.0
2017-Aug-08 14:58N 44°43' E 037°49'0 0.0
2017-Aug-08 14:28N 44°43' E 037°49'0 0.0
2017-Aug-08 13:58N 44°43' E 037°49'0 0.0
2017-Aug-08 13:28N 44°43' E 037°49'0 0.0
2017-Aug-08 12:58N 44°43' E 037°49'0 0.0
2017-Aug-08 12:28N 44°43' E 037°49'0 0.0
2017-Aug-08 11:58N 44°43' E 037°49'0 0.0
2017-Aug-08 11:28N 44°43' E 037°49'0 0.0
2017-Aug-08 10:58N 44°43' E 037°49'0 0.0
2017-Aug-08 10:28N 44°43' E 037°49'0 0.0
2017-Aug-08 09:58N 44°43' E 037°49'0 0.0
2017-Aug-08 09:28N 44°43' E 037°49'0 0.0
2017-Aug-08 08:58N 44°43' E 037°49'0 0.0
2017-Aug-08 08:25N 44°43' E 037°49'0 0.0
2017-Aug-08 07:55N 44°43' E 037°49'0 0.0
2017-Aug-08 07:28N 44°43' E 037°49'0 0.0
2017-Aug-08 06:58N 44°43' E 037°49'0 0.0
2017-Aug-08 06:28N 44°43' E 037°49'0 0.0
2017-Aug-08 05:58N 44°43' E 037°49'0 0.0
2017-Aug-08 05:28N 44°43' E 037°49'0 0.0
2017-Aug-08 04:58N 44°43' E 037°49'0 0.0
2017-Aug-08 04:28N 44°43' E 037°49'0 0.0
2017-Aug-08 03:58N 44°43' E 037°49'0 0.0
2017-Aug-08 03:28N 44°43' E 037°49'0 0.0
2017-Aug-08 02:58N 44°43' E 037°49'0 0.0
2017-Aug-08 02:28N 44°43' E 037°49'0 0.0
2017-Aug-08 01:58N 44°43' E 037°49'0 0.0
2017-Aug-08 01:28N 44°43' E 037°49'0 0.0
2017-Aug-08 00:58N 44°43' E 037°49'0 0.0
2017-Aug-08 00:28N 44°43' E 037°49'0 0.0
2017-Aug-07 23:58N 44°43' E 037°49'0 0.0
2017-Aug-07 23:25N 44°43' E 037°49'0 0.0
2017-Aug-07 22:58N 44°43' E 037°49'0 0.0
2017-Aug-07 22:28N 44°43' E 037°49'0 0.0
2017-Aug-07 21:58N 44°43' E 037°49'0 0.0
2017-Aug-07 21:28N 44°43' E 037°49'0 0.0
2017-Aug-07 20:58N 44°43' E 037°49'0 0.0
2017-Aug-07 20:28N 44°43' E 037°49'0 0.0
2017-Aug-07 19:58N 44°43' E 037°49'0 0.0
2017-Aug-07 19:28N 44°43' E 037°49'0 0.0
2017-Aug-07 18:58N 44°43' E 037°49'0 0.0
2017-Aug-07 18:28N 44°43' E 037°49'0 0.0
2017-Aug-07 17:58N 44°43' E 037°49'0 0.0
2017-Aug-07 17:25N 44°43' E 037°49'0 0.0
2017-Aug-07 16:58N 44°43' E 037°49'0 0.0
2017-Aug-07 16:28N 44°43' E 037°49'0 0.0
2017-Aug-07 15:58N 44°43' E 037°49'0 0.0
2017-Aug-07 15:28N 44°43' E 037°49'0 0.0
2017-Aug-07 14:58N 44°43' E 037°49'0 0.0
2017-Aug-07 14:28N 44°43' E 037°49'0 0.0
2017-Aug-07 13:58N 44°43' E 037°49'0 0.0
2017-Aug-07 13:28N 44°43' E 037°49'0 0.0
2017-Aug-07 12:58N 44°43' E 037°49'0 0.0
2017-Aug-07 12:28N 44°43' E 037°49'0 0.0
2017-Aug-07 11:58N 44°43' E 037°49'0 0.0
2017-Aug-07 11:28N 44°43' E 037°49'0 0.0
2017-Aug-07 10:58N 44°43' E 037°49'0 0.0
2017-Aug-07 10:28N 44°43' E 037°49'0 0.0
2017-Aug-07 09:58N 44°43' E 037°49'0 0.0
2017-Aug-07 09:28N 44°43' E 037°49'0 0.0
2017-Aug-07 08:58N 44°43' E 037°49'0 0.0
2017-Aug-07 08:28N 44°43' E 037°49'0 0.0
2017-Aug-07 07:58N 44°43' E 037°49'0 0.0
2017-Aug-07 07:28N 44°43' E 037°49'0 0.0
2017-Aug-07 06:58N 44°43' E 037°49'0 0.0
2017-Aug-07 06:28N 44°43' E 037°49'0 0.0
2017-Aug-07 05:58N 44°43' E 037°49'0 0.0
2017-Aug-07 05:28N 44°43' E 037°49'0 0.0
2017-Aug-07 04:58N 44°43' E 037°49'0 0.0
2017-Aug-07 04:28N 44°43' E 037°49'0 0.0
2017-Aug-07 03:58N 44°43' E 037°49'0 0.0
2017-Aug-07 03:28N 44°43' E 037°49'0 0.0
2017-Aug-07 02:58N 44°43' E 037°49'0 0.0
2017-Aug-07 02:28N 44°43' E 037°49'0 0.0
2017-Aug-07 01:58N 44°43' E 037°49'0 0.0
2017-Aug-07 01:28N 44°43' E 037°49'0 0.0
2017-Aug-07 00:58N 44°43' E 037°49'  

Dump ship's entire track history